Scott Bar, California
Current Conditions -  °F | °C
As of 9:53 AM on Sunday 25 Jan 2015 (Local Time) from KSIY Reporting Station
Clear Clear  
Wind Chill: 35°   Ceiling: Unl
Heat Index: 35°   Visibility: 10mi
Dew Point: 34°   Wind: 3mph
Humidity: 96%   Direction: 210°SSW
Pressure: 30.35"   Gusts: NA
Location:  41.74°N, 123°W
Report Text: KSIY 251753Z AUTO 21003KT 10SM CLR 02/01 A3035 RMK AO2 SLP300 I6001 T00170011 10017 21039 58001
Loading
Personal Weather Stations






























Interactive Weather Map New forecast layout! Learn more

10-Day Weather Forecast

Advertisements
Track Severe Weather on mobile